VBRA4: Lee Creek, Van Buren

Data processed at Tue May 21 2019 21:50


All information presented herein is the property of the government of the United States of America and may be revised or deleted at any time without prior notice.
Dissemination of this information without the expressed written consent of the Public Affairs Office, Tulsa District U.S. Army Corps of Engineers is strictly prohibited.
These data are gathered electronically and, as presented, have not undergone any form of quality control. These data are not guaranteed to be valid or correct.
Go to home page.
Go to station list.
Go to home page.

Upstream stations:

Downstream station:
Previous Day
Next Day
Current Day
    
SHEF ID:       VBRA4     Lee Creek at Lee Creek Reservoir
STATION TYPE:  
Regulating: Stage =    17.00, Flow =        0

               PRECIP     STAGE  RIV-FLOW  BAT-LOAD
                   in        ft       cfs      volt
              Ccp-Rev   Ccp-Rev   Ccp-Rev   Ccp-Rev
(US/Central)
05/21 00:00      0.00     20.43       776     12.65
05/21 01:00      0.00     20.42       747     12.65
05/21 02:00      0.00     20.42       747     12.65
05/21 03:00      0.00     20.42       747     12.65
05/21 04:00      0.00     20.42       747     12.65
05/21 05:00      0.00     20.41       718     12.65
05/21 06:00      0.00     20.41       718     12.65
05/21 07:00      0.00     20.41       718     12.65
05/21 08:00      0.00     20.41       718     12.65
05/21 09:00      0.00     20.40       690     12.65
05/21 10:00      0.00     20.39       662     12.65
05/21 11:00      0.08     20.43       776     12.65
05/21 12:00      0.24     20.43       776     12.57
05/21 13:00      0.05     20.44       806     12.65
05/21 14:00      0.08     20.44       806      ----
05/21 15:00      0.08     20.44       806     12.65
05/21 16:00      0.01     20.46       866     12.65
05/21 17:00      0.01     20.47       897     12.73
05/21 18:00      0.00     20.49       960     12.97
05/21 19:00      0.00     20.50       992     12.97
05/21 20:00      0.00     20.51      1024     12.89
05/21 21:00      0.00     20.52      1057     12.73
05/21 22:00      ----      ----      ----      ----
05/21 23:00      ----      ----      ----      ----